sensor_id;sensor_type;location;lat;lon;timestamp;temperature;humidity
22319;DHT22;11327;52.334;9.506;2023-07-28T00:01:56;17.90;99.90
22319;DHT22;11327;52.334;9.506;2023-07-28T00:05:16;17.90;99.90
22319;DHT22;11327;52.334;9.506;2023-07-28T00:08:37;17.90;99.90
22319;DHT22;11327;52.334;9.506;2023-07-28T00:11:59;17.90;99.90
22319;DHT22;11327;52.334;9.506;2023-07-28T00:15:20;17.90;99.90
22319;DHT22;11327;52.334;9.506;2023-07-28T00:18:41;17.90;99.90
22319;DHT22;11327;52.334;9.506;2023-07-28T00:22:02;17.90;99.90
22319;DHT22;11327;52.334;9.506;2023-07-28T00:25:23;18.00;99.90
22319;DHT22;11327;52.334;9.506;2023-07-28T00:28:43;17.90;99.90
22319;DHT22;11327;52.334;9.506;2023-07-28T00:32:04;18.00;99.90
22319;DHT22;11327;52.334;9.506;2023-07-28T00:35:25;17.90;99.90
22319;DHT22;11327;52.334;9.506;2023-07-28T00:38:46;18.00;99.90
22319;DHT22;11327;52.334;9.506;2023-07-28T00:42:07;17.90;99.90
22319;DHT22;11327;52.334;9.506;2023-07-28T00:45:30;18.00;99.90
22319;DHT22;11327;52.334;9.506;2023-07-28T00:48:52;17.90;99.90
22319;DHT22;11327;52.334;9.506;2023-07-28T00:52:13;17.80;99.90
22319;DHT22;11327;52.334;9.506;2023-07-28T00:55:34;17.90;99.90
22319;DHT22;11327;52.334;9.506;2023-07-28T00:58:55;17.90;99.90
22319;DHT22;11327;52.334;9.506;2023-07-28T01:02:16;17.90;99.90
22319;DHT22;11327;52.334;9.506;2023-07-28T01:05:54;17.90;99.90
22319;DHT22;11327;52.334;9.506;2023-07-28T01:09:13;17.90;99.90
22319;DHT22;11327;52.334;9.506;2023-07-28T01:12:35;17.90;99.90
22319;DHT22;11327;52.334;9.506;2023-07-28T01:15:56;17.80;99.90
22319;DHT22;11327;52.334;9.506;2023-07-28T01:19:20;17.90;99.90
22319;DHT22;11327;52.334;9.506;2023-07-28T01:26:10;17.90;99.90
22319;DHT22;11327;52.334;9.506;2023-07-28T01:29:31;17.80;99.90
22319;DHT22;11327;52.334;9.506;2023-07-28T01:32:56;17.90;99.90
22319;DHT22;11327;52.334;9.506;2023-07-28T01:36:17;17.90;99.90
22319;DHT22;11327;52.334;9.506;2023-07-28T01:39:37;17.80;99.90
22319;DHT22;11327;52.334;9.506;2023-07-28T01:42:58;17.90;99.90
22319;DHT22;11327;52.334;9.506;2023-07-28T01:46:19;17.90;99.90
22319;DHT22;11327;52.334;9.506;2023-07-28T01:49:40;17.90;99.90
22319;DHT22;11327;52.334;9.506;2023-07-28T01:53:00;17.80;99.90
22319;DHT22;11327;52.334;9.506;2023-07-28T01:56:21;17.80;99.90
22319;DHT22;11327;52.334;9.506;2023-07-28T01:59:42;17.80;99.90
22319;DHT22;11327;52.334;9.506;2023-07-28T02:03:02;17.80;99.90
22319;DHT22;11327;52.334;9.506;2023-07-28T02:06:24;17.90;99.90
22319;DHT22;11327;52.334;9.506;2023-07-28T02:09:44;17.90;99.90
22319;DHT22;11327;52.334;9.506;2023-07-28T02:13:05;17.80;99.90
22319;DHT22;11327;52.334;9.506;2023-07-28T02:16:26;17.90;99.90
22319;DHT22;11327;52.334;9.506;2023-07-28T02:19:48;17.90;99.90
22319;DHT22;11327;52.334;9.506;2023-07-28T02:23:08;17.90;99.90
22319;DHT22;11327;52.334;9.506;2023-07-28T02:26:29;17.90;99.90
22319;DHT22;11327;52.334;9.506;2023-07-28T02:29:50;17.90;99.90
22319;DHT22;11327;52.334;9.506;2023-07-28T02:33:10;17.80;99.90
22319;DHT22;11327;52.334;9.506;2023-07-28T02:36:31;17.80;99.90
22319;DHT22;11327;52.334;9.506;2023-07-28T02:39:52;17.80;99.90
22319;DHT22;11327;52.334;9.506;2023-07-28T02:43:12;17.70;99.90
22319;DHT22;11327;52.334;9.506;2023-07-28T02:46:33;17.70;99.90
22319;DHT22;11327;52.334;9.506;2023-07-28T02:49:54;17.70;99.90
22319;DHT22;11327;52.334;9.506;2023-07-28T02:53:14;17.70;99.90
22319;DHT22;11327;52.334;9.506;2023-07-28T02:56:35;17.70;99.90
22319;DHT22;11327;52.334;9.506;2023-07-28T02:59:58;17.80;99.90
22319;DHT22;11327;52.334;9.506;2023-07-28T03:03:20;17.90;99.90
22319;DHT22;11327;52.334;9.506;2023-07-28T03:06:40;17.80;99.90
22319;DHT22;11327;52.334;9.506;2023-07-28T03:10:01;17.80;99.90
22319;DHT22;11327;52.334;9.506;2023-07-28T03:13:22;17.70;99.90
22319;DHT22;11327;52.334;9.506;2023-07-28T03:16:42;17.80;99.90
22319;DHT22;11327;52.334;9.506;2023-07-28T03:20:04;17.70;99.90
22319;DHT22;11327;52.334;9.506;2023-07-28T03:23:25;17.80;99.90
22319;DHT22;11327;52.334;9.506;2023-07-28T03:26:45;17.80;99.90
22319;DHT22;11327;52.334;9.506;2023-07-28T03:30:07;17.90;99.90
22319;DHT22;11327;52.334;9.506;2023-07-28T03:33:29;17.80;99.90
22319;DHT22;11327;52.334;9.506;2023-07-28T03:36:50;17.80;99.90
22319;DHT22;11327;52.334;9.506;2023-07-28T03:40:11;17.80;99.90
22319;DHT22;11327;52.334;9.506;2023-07-28T03:43:31;17.80;99.90
22319;DHT22;11327;52.334;9.506;2023-07-28T03:46:52;17.80;99.90
22319;DHT22;11327;52.334;9.506;2023-07-28T03:50:13;17.80;99.90
22319;DHT22;11327;52.334;9.506;2023-07-28T03:53:34;17.80;99.90
22319;DHT22;11327;52.334;9.506;2023-07-28T03:56:55;17.70;99.90
22319;DHT22;11327;52.334;9.506;2023-07-28T04:00:16;17.70;99.90
22319;DHT22;11327;52.334;9.506;2023-07-28T04:03:37;17.70;99.90
22319;DHT22;11327;52.334;9.506;2023-07-28T04:06:58;17.80;99.90
22319;DHT22;11327;52.334;9.506;2023-07-28T04:10:19;17.80;99.90
22319;DHT22;11327;52.334;9.506;2023-07-28T04:13:40;17.80;99.90
22319;DHT22;11327;52.334;9.506;2023-07-28T04:17:01;17.80;99.90
22319;DHT22;11327;52.334;9.506;2023-07-28T04:20:21;17.70;99.90
22319;DHT22;11327;52.334;9.506;2023-07-28T04:23:42;17.70;99.90
22319;DHT22;11327;52.334;9.506;2023-07-28T04:27:04;17.70;99.90
22319;DHT22;11327;52.334;9.506;2023-07-28T04:30:25;17.70;99.90
22319;DHT22;11327;52.334;9.506;2023-07-28T04:33:45;17.70;99.90
22319;DHT22;11327;52.334;9.506;2023-07-28T04:37:06;17.60;99.90
22319;DHT22;11327;52.334;9.506;2023-07-28T04:40:27;17.70;99.90
22319;DHT22;11327;52.334;9.506;2023-07-28T04:43:48;17.70;99.90
22319;DHT22;11327;52.334;9.506;2023-07-28T04:47:08;17.70;99.90
22319;DHT22;11327;52.334;9.506;2023-07-28T04:50:29;17.70;99.90
22319;DHT22;11327;52.334;9.506;2023-07-28T04:53:50;17.70;99.90
22319;DHT22;11327;52.334;9.506;2023-07-28T04:57:10;17.70;99.90
22319;DHT22;11327;52.334;9.506;2023-07-28T05:00:31;17.80;99.90
22319;DHT22;11327;52.334;9.506;2023-07-28T05:03:52;17.80;99.90
22319;DHT22;11327;52.334;9.506;2023-07-28T05:07:13;17.80;99.90
22319;DHT22;11327;52.334;9.506;2023-07-28T05:10:33;17.80;99.90
22319;DHT22;11327;52.334;9.506;2023-07-28T05:13:54;17.80;99.90
22319;DHT22;11327;52.334;9.506;2023-07-28T05:17:15;17.80;99.90
22319;DHT22;11327;52.334;9.506;2023-07-28T05:20:35;17.90;99.90
22319;DHT22;11327;52.334;9.506;2023-07-28T05:23:56;17.80;99.90
22319;DHT22;11327;52.334;9.506;2023-07-28T05:27:17;17.90;99.90
22319;DHT22;11327;52.334;9.506;2023-07-28T05:30:37;17.90;99.90
22319;DHT22;11327;52.334;9.506;2023-07-28T05:33:58;17.90;99.90
22319;DHT22;11327;52.334;9.506;2023-07-28T05:37:19;17.90;99.90
22319;DHT22;11327;52.334;9.506;2023-07-28T05:40:40;17.90;99.90
22319;DHT22;11327;52.334;9.506;2023-07-28T05:44:00;17.90;99.90
22319;DHT22;11327;52.334;9.506;2023-07-28T05:47:21;18.00;99.90
22319;DHT22;11327;52.334;9.506;2023-07-28T05:50:42;18.00;99.90
22319;DHT22;11327;52.334;9.506;2023-07-28T05:54:02;18.00;99.90
22319;DHT22;11327;52.334;9.506;2023-07-28T05:57:23;18.00;99.90
22319;DHT22;11327;52.334;9.506;2023-07-28T06:00:45;18.10;99.90
22319;DHT22;11327;52.334;9.506;2023-07-28T06:04:05;18.00;99.90
22319;DHT22;11327;52.334;9.506;2023-07-28T06:07:26;18.00;99.90
22319;DHT22;11327;52.334;9.506;2023-07-28T06:10:47;18.00;99.90
22319;DHT22;11327;52.334;9.506;2023-07-28T06:14:08;18.10;99.90
22319;DHT22;11327;52.334;9.506;2023-07-28T06:17:28;18.10;99.90
22319;DHT22;11327;52.334;9.506;2023-07-28T06:20:49;18.00;99.90
22319;DHT22;11327;52.334;9.506;2023-07-28T06:24:10;18.00;99.90
22319;DHT22;11327;52.334;9.506;2023-07-28T06:27:30;18.00;99.90
22319;DHT22;11327;52.334;9.506;2023-07-28T06:30:54;18.00;99.90
22319;DHT22;11327;52.334;9.506;2023-07-28T06:34:15;18.00;99.90
22319;DHT22;11327;52.334;9.506;2023-07-28T06:37:37;18.00;99.90
22319;DHT22;11327;52.334;9.506;2023-07-28T06:40:58;18.00;99.90
22319;DHT22;11327;52.334;9.506;2023-07-28T06:44:19;18.00;99.90
22319;DHT22;11327;52.334;9.506;2023-07-28T06:47:39;18.00;99.90
22319;DHT22;11327;52.334;9.506;2023-07-28T06:51:00;18.00;99.90
22319;DHT22;11327;52.334;9.506;2023-07-28T06:54:21;18.10;99.90
22319;DHT22;11327;52.334;9.506;2023-07-28T06:57:42;18.10;99.90
22319;DHT22;11327;52.334;9.506;2023-07-28T07:01:02;18.20;99.90
22319;DHT22;11327;52.334;9.506;2023-07-28T07:04:23;18.20;99.90
22319;DHT22;11327;52.334;9.506;2023-07-28T07:07:44;18.20;99.90
22319;DHT22;11327;52.334;9.506;2023-07-28T07:11:04;18.20;99.90
22319;DHT22;11327;52.334;9.506;2023-07-28T07:14:26;18.20;99.90
22319;DHT22;11327;52.334;9.506;2023-07-28T07:17:47;18.10;99.90
22319;DHT22;11327;52.334;9.506;2023-07-28T07:21:07;18.30;99.90
22319;DHT22;11327;52.334;9.506;2023-07-28T07:24:28;18.40;99.90
22319;DHT22;11327;52.334;9.506;2023-07-28T07:27:49;18.50;99.90
22319;DHT22;11327;52.334;9.506;2023-07-28T07:31:16;18.60;99.90
22319;DHT22;11327;52.334;9.506;2023-07-28T07:34:37;18.60;99.90
22319;DHT22;11327;52.334;9.506;2023-07-28T07:37:58;18.70;99.90
22319;DHT22;11327;52.334;9.506;2023-07-28T07:41:21;18.80;99.90
22319;DHT22;11327;52.334;9.506;2023-07-28T07:44:43;18.80;99.90
22319;DHT22;11327;52.334;9.506;2023-07-28T07:48:04;18.90;99.90
22319;DHT22;11327;52.334;9.506;2023-07-28T07:51:24;18.90;99.90
22319;DHT22;11327;52.334;9.506;2023-07-28T07:54:45;19.00;99.90
22319;DHT22;11327;52.334;9.506;2023-07-28T07:58:06;19.20;99.90
22319;DHT22;11327;52.334;9.506;2023-07-28T08:01:27;19.30;99.90
22319;DHT22;11327;52.334;9.506;2023-07-28T08:04:47;19.40;99.90
22319;DHT22;11327;52.334;9.506;2023-07-28T08:08:08;19.60;99.90
22319;DHT22;11327;52.334;9.506;2023-07-28T08:11:30;19.70;99.90
22319;DHT22;11327;52.334;9.506;2023-07-28T08:14:50;19.70;99.90
22319;DHT22;11327;52.334;9.506;2023-07-28T08:18:12;19.90;99.90
22319;DHT22;11327;52.334;9.506;2023-07-28T08:21:33;20.00;99.90
22319;DHT22;11327;52.334;9.506;2023-07-28T08:24:56;20.10;99.90
22319;DHT22;11327;52.334;9.506;2023-07-28T08:28:16;20.30;99.90
22319;DHT22;11327;52.334;9.506;2023-07-28T08:31:37;20.30;99.90
22319;DHT22;11327;52.334;9.506;2023-07-28T08:34:58;20.30;99.90
22319;DHT22;11327;52.334;9.506;2023-07-28T08:38:19;20.30;99.90
22319;DHT22;11327;52.334;9.506;2023-07-28T08:41:39;20.30;99.90
22319;DHT22;11327;52.334;9.506;2023-07-28T08:45:00;20.50;99.90
22319;DHT22;11327;52.334;9.506;2023-07-28T08:48:21;20.60;99.90
22319;DHT22;11327;52.334;9.506;2023-07-28T08:51:41;20.70;99.90
22319;DHT22;11327;52.334;9.506;2023-07-28T08:55:03;21.00;99.90
22319;DHT22;11327;52.334;9.506;2023-07-28T08:58:24;21.10;99.90
22319;DHT22;11327;52.334;9.506;2023-07-28T09:01:45;21.30;99.90
22319;DHT22;11327;52.334;9.506;2023-07-28T09:05:08;21.60;99.90
22319;DHT22;11327;52.334;9.506;2023-07-28T09:08:30;21.70;99.90
22319;DHT22;11327;52.334;9.506;2023-07-28T09:11:53;21.80;99.90
22319;DHT22;11327;52.334;9.506;2023-07-28T09:15:14;21.90;99.90
22319;DHT22;11327;52.334;9.506;2023-07-28T09:18:36;22.00;99.90
22319;DHT22;11327;52.334;9.506;2023-07-28T09:21:59;22.10;99.90
22319;DHT22;11327;52.334;9.506;2023-07-28T09:25:20;22.30;99.90
22319;DHT22;11327;52.334;9.506;2023-07-28T09:28:42;22.50;99.90
22319;DHT22;11327;52.334;9.506;2023-07-28T09:32:05;22.70;99.90
22319;DHT22;11327;52.334;9.506;2023-07-28T09:35:26;22.70;99.90
22319;DHT22;11327;52.334;9.506;2023-07-28T09:38:48;22.70;99.90
22319;DHT22;11327;52.334;9.506;2023-07-28T09:42:09;22.50;99.90
22319;DHT22;11327;52.334;9.506;2023-07-28T09:45:31;22.40;99.90
22319;DHT22;11327;52.334;9.506;2023-07-28T09:48:55;22.50;99.90
22319;DHT22;11327;52.334;9.506;2023-07-28T09:52:18;22.40;99.90
22319;DHT22;11327;52.334;9.506;2023-07-28T09:55:40;22.50;99.90
22319;DHT22;11327;52.334;9.506;2023-07-28T09:59:07;22.60;99.90
22319;DHT22;11327;52.334;9.506;2023-07-28T10:02:27;22.90;99.90
22319;DHT22;11327;52.334;9.506;2023-07-28T10:05:48;23.10;99.90
22319;DHT22;11327;52.334;9.506;2023-07-28T10:09:09;23.30;99.90
22319;DHT22;11327;52.334;9.506;2023-07-28T10:12:47;23.10;99.90
22319;DHT22;11327;52.334;9.506;2023-07-28T10:16:09;23.20;99.90
22319;DHT22;11327;52.334;9.506;2023-07-28T10:19:35;23.30;99.90
22319;DHT22;11327;52.334;9.506;2023-07-28T10:26:39;23.50;99.90
22319;DHT22;11327;52.334;9.506;2023-07-28T10:30:03;23.50;99.90
22319;DHT22;11327;52.334;9.506;2023-07-28T10:33:30;23.40;99.90
22319;DHT22;11327;52.334;9.506;2023-07-28T10:36:56;23.20;99.90
22319;DHT22;11327;52.334;9.506;2023-07-28T10:40:28;23.20;99.90
22319;DHT22;11327;52.334;9.506;2023-07-28T10:43:50;23.10;99.90
22319;DHT22;11327;52.334;9.506;2023-07-28T10:47:11;23.20;99.90
22319;DHT22;11327;52.334;9.506;2023-07-28T10:50:33;23.20;99.90
22319;DHT22;11327;52.334;9.506;2023-07-28T10:53:56;23.30;99.90
22319;DHT22;11327;52.334;9.506;2023-07-28T10:57:18;23.30;99.90
22319;DHT22;11327;52.334;9.506;2023-07-28T11:00:39;23.30;99.90
22319;DHT22;11327;52.334;9.506;2023-07-28T11:04:12;23.20;99.90
22319;DHT22;11327;52.334;9.506;2023-07-28T11:07:33;23.30;99.90
22319;DHT22;11327;52.334;9.506;2023-07-28T11:10:54;23.40;99.90
22319;DHT22;11327;52.334;9.506;2023-07-28T11:14:16;23.30;99.90
22319;DHT22;11327;52.334;9.506;2023-07-28T11:17:46;23.40;99.90
22319;DHT22;11327;52.334;9.506;2023-07-28T11:21:04;23.30;99.90
22319;DHT22;11327;52.334;9.506;2023-07-28T11:24:26;23.50;99.90
22319;DHT22;11327;52.334;9.506;2023-07-28T11:27:47;23.60;99.90
22319;DHT22;11327;52.334;9.506;2023-07-28T11:31:08;23.40;99.90
22319;DHT22;11327;52.334;9.506;2023-07-28T11:34:34;23.40;99.90
22319;DHT22;11327;52.334;9.506;2023-07-28T11:37:54;23.40;99.90
22319;DHT22;11327;52.334;9.506;2023-07-28T11:41:16;23.70;99.90
22319;DHT22;11327;52.334;9.506;2023-07-28T11:44:37;24.10;99.90
22319;DHT22;11327;52.334;9.506;2023-07-28T11:48:03;24.20;99.90
22319;DHT22;11327;52.334;9.506;2023-07-28T11:51:25;24.20;99.90
22319;DHT22;11327;52.334;9.506;2023-07-28T11:54:46;24.30;99.90
22319;DHT22;11327;52.334;9.506;2023-07-28T11:58:07;24.40;99.90
22319;DHT22;11327;52.334;9.506;2023-07-28T12:01:28;24.60;99.90
22319;DHT22;11327;52.334;9.506;2023-07-28T12:04:49;24.60;99.90
22319;DHT22;11327;52.334;9.506;2023-07-28T12:08:11;24.40;99.90
22319;DHT22;11327;52.334;9.506;2023-07-28T12:11:32;24.40;99.90
22319;DHT22;11327;52.334;9.506;2023-07-28T12:14:59;24.50;99.90
22319;DHT22;11327;52.334;9.506;2023-07-28T12:18:18;24.60;99.90
22319;DHT22;11327;52.334;9.506;2023-07-28T12:21:40;24.70;99.90
22319;DHT22;11327;52.334;9.506;2023-07-28T12:25:00;24.80;99.90
22319;DHT22;11327;52.334;9.506;2023-07-28T12:28:21;24.60;99.90
22319;DHT22;11327;52.334;9.506;2023-07-28T12:31:42;24.50;99.90
22319;DHT22;11327;52.334;9.506;2023-07-28T12:35:03;24.30;99.90
22319;DHT22;11327;52.334;9.506;2023-07-28T12:38:24;24.40;99.90
22319;DHT22;11327;52.334;9.506;2023-07-28T12:41:45;24.40;99.90
22319;DHT22;11327;52.334;9.506;2023-07-28T12:45:06;24.40;99.90
22319;DHT22;11327;52.334;9.506;2023-07-28T12:48:27;24.50;99.90
22319;DHT22;11327;52.334;9.506;2023-07-28T12:51:48;24.40;99.90
22319;DHT22;11327;52.334;9.506;2023-07-28T12:55:09;24.30;99.90
22319;DHT22;11327;52.334;9.506;2023-07-28T12:58:29;24.10;99.90
22319;DHT22;11327;52.334;9.506;2023-07-28T13:01:52;24.10;99.90
22319;DHT22;11327;52.334;9.506;2023-07-28T13:05:13;24.00;99.90
22319;DHT22;11327;52.334;9.506;2023-07-28T13:08:34;24.00;99.90
22319;DHT22;11327;52.334;9.506;2023-07-28T13:11:55;24.10;99.90
22319;DHT22;11327;52.334;9.506;2023-07-28T13:15:16;23.90;99.90
22319;DHT22;11327;52.334;9.506;2023-07-28T13:18:37;23.90;99.90
22319;DHT22;11327;52.334;9.506;2023-07-28T13:21:57;24.10;99.90
22319;DHT22;11327;52.334;9.506;2023-07-28T13:25:18;24.00;99.90
22319;DHT22;11327;52.334;9.506;2023-07-28T13:28:39;24.20;99.90
22319;DHT22;11327;52.334;9.506;2023-07-28T13:32:01;24.30;99.90
22319;DHT22;11327;52.334;9.506;2023-07-28T13:35:22;24.30;99.90
22319;DHT22;11327;52.334;9.506;2023-07-28T13:38:43;24.40;99.90
22319;DHT22;11327;52.334;9.506;2023-07-28T13:42:04;24.30;99.90
22319;DHT22;11327;52.334;9.506;2023-07-28T13:45:25;24.30;99.90
22319;DHT22;11327;52.334;9.506;2023-07-28T13:48:46;24.30;99.90
22319;DHT22;11327;52.334;9.506;2023-07-28T13:52:07;24.60;99.90
22319;DHT22;11327;52.334;9.506;2023-07-28T13:55:28;24.90;99.90
22319;DHT22;11327;52.334;9.506;2023-07-28T13:58:48;25.10;99.90
22319;DHT22;11327;52.334;9.506;2023-07-28T14:02:09;25.00;99.90
22319;DHT22;11327;52.334;9.506;2023-07-28T14:05:30;25.30;99.90
22319;DHT22;11327;52.334;9.506;2023-07-28T14:08:50;25.40;99.90
22319;DHT22;11327;52.334;9.506;2023-07-28T14:12:11;25.40;99.90
22319;DHT22;11327;52.334;9.506;2023-07-28T14:15:32;25.50;99.90
22319;DHT22;11327;52.334;9.506;2023-07-28T14:18:54;25.50;99.90
22319;DHT22;11327;52.334;9.506;2023-07-28T14:22:14;25.70;99.90
22319;DHT22;11327;52.334;9.506;2023-07-28T14:25:35;25.70;99.90
22319;DHT22;11327;52.334;9.506;2023-07-28T14:28:56;25.70;99.90
22319;DHT22;11327;52.334;9.506;2023-07-28T14:32:16;25.70;99.90
22319;DHT22;11327;52.334;9.506;2023-07-28T14:35:37;25.60;99.90
22319;DHT22;11327;52.334;9.506;2023-07-28T14:38:58;25.80;99.90
22319;DHT22;11327;52.334;9.506;2023-07-28T14:42:19;25.90;99.90
22319;DHT22;11327;52.334;9.506;2023-07-28T14:45:40;26.00;99.90
22319;DHT22;11327;52.334;9.506;2023-07-28T14:49:01;26.00;99.90
22319;DHT22;11327;52.334;9.506;2023-07-28T14:52:22;25.90;99.90
22319;DHT22;11327;52.334;9.506;2023-07-28T14:55:43;25.80;99.90
22319;DHT22;11327;52.334;9.506;2023-07-28T14:59:03;25.70;99.90
22319;DHT22;11327;52.334;9.506;2023-07-28T15:02:24;25.80;99.90
22319;DHT22;11327;52.334;9.506;2023-07-28T15:05:45;26.00;99.90
22319;DHT22;11327;52.334;9.506;2023-07-28T15:09:06;26.10;99.90
22319;DHT22;11327;52.334;9.506;2023-07-28T15:12:26;26.20;99.90
22319;DHT22;11327;52.334;9.506;2023-07-28T15:15:48;26.10;99.90
22319;DHT22;11327;52.334;9.506;2023-07-28T15:19:09;26.10;99.90
22319;DHT22;11327;52.334;9.506;2023-07-28T15:22:29;26.00;99.90
22319;DHT22;11327;52.334;9.506;2023-07-28T15:25:52;25.80;99.90
22319;DHT22;11327;52.334;9.506;2023-07-28T15:29:15;25.40;99.90
22319;DHT22;11327;52.334;9.506;2023-07-28T15:32:37;25.20;99.90
22319;DHT22;11327;52.334;9.506;2023-07-28T15:35:57;25.10;99.90
22319;DHT22;11327;52.334;9.506;2023-07-28T15:39:18;25.00;99.90
22319;DHT22;11327;52.334;9.506;2023-07-28T15:42:39;25.10;99.90
22319;DHT22;11327;52.334;9.506;2023-07-28T15:45:59;25.30;99.90
22319;DHT22;11327;52.334;9.506;2023-07-28T15:49:22;25.30;99.90
22319;DHT22;11327;52.334;9.506;2023-07-28T15:52:43;25.30;99.90
22319;DHT22;11327;52.334;9.506;2023-07-28T15:56:03;25.30;99.90
22319;DHT22;11327;52.334;9.506;2023-07-28T15:59:24;25.50;99.90
22319;DHT22;11327;52.334;9.506;2023-07-28T16:02:45;25.60;99.90
22319;DHT22;11327;52.334;9.506;2023-07-28T16:06:07;25.70;99.90
22319;DHT22;11327;52.334;9.506;2023-07-28T16:09:27;25.50;99.90
22319;DHT22;11327;52.334;9.506;2023-07-28T16:12:48;25.50;99.90
22319;DHT22;11327;52.334;9.506;2023-07-28T16:16:09;25.30;99.90
22319;DHT22;11327;52.334;9.506;2023-07-28T16:19:31;25.10;99.90
22319;DHT22;11327;52.334;9.506;2023-07-28T16:22:51;25.00;99.90
22319;DHT22;11327;52.334;9.506;2023-07-28T16:26:12;24.90;99.90
22319;DHT22;11327;52.334;9.506;2023-07-28T16:29:33;24.90;99.90
22319;DHT22;11327;52.334;9.506;2023-07-28T16:32:54;25.00;99.90
22319;DHT22;11327;52.334;9.506;2023-07-28T16:36:14;25.00;99.90
22319;DHT22;11327;52.334;9.506;2023-07-28T16:39:35;25.00;99.90
22319;DHT22;11327;52.334;9.506;2023-07-28T16:42:56;24.90;99.90
22319;DHT22;11327;52.334;9.506;2023-07-28T16:46:17;24.80;99.90
22319;DHT22;11327;52.334;9.506;2023-07-28T16:49:38;24.60;99.90
22319;DHT22;11327;52.334;9.506;2023-07-28T16:52:58;24.60;99.90
22319;DHT22;11327;52.334;9.506;2023-07-28T16:56:19;24.60;99.90
22319;DHT22;11327;52.334;9.506;2023-07-28T16:59:40;24.50;99.90
22319;DHT22;11327;52.334;9.506;2023-07-28T17:03:00;24.40;99.90
22319;DHT22;11327;52.334;9.506;2023-07-28T17:06:21;24.40;99.90
22319;DHT22;11327;52.334;9.506;2023-07-28T17:09:42;24.30;99.90
22319;DHT22;11327;52.334;9.506;2023-07-28T17:13:02;24.30;99.90
22319;DHT22;11327;52.334;9.506;2023-07-28T17:16:24;24.30;99.90
22319;DHT22;11327;52.334;9.506;2023-07-28T17:19:45;24.30;99.90
22319;DHT22;11327;52.334;9.506;2023-07-28T17:23:06;24.30;99.90
22319;DHT22;11327;52.334;9.506;2023-07-28T17:26:27;24.30;99.90
22319;DHT22;11327;52.334;9.506;2023-07-28T17:29:48;24.30;99.90
22319;DHT22;11327;52.334;9.506;2023-07-28T17:33:08;24.30;99.90
22319;DHT22;11327;52.334;9.506;2023-07-28T17:36:29;24.30;99.90
22319;DHT22;11327;52.334;9.506;2023-07-28T17:39:50;24.30;99.90
22319;DHT22;11327;52.334;9.506;2023-07-28T17:43:11;24.20;99.90
22319;DHT22;11327;52.334;9.506;2023-07-28T17:46:31;24.10;99.90
22319;DHT22;11327;52.334;9.506;2023-07-28T17:49:52;24.20;99.90
22319;DHT22;11327;52.334;9.506;2023-07-28T17:53:13;24.20;99.90
22319;DHT22;11327;52.334;9.506;2023-07-28T17:56:33;24.20;99.90
22319;DHT22;11327;52.334;9.506;2023-07-28T17:59:54;24.20;99.90
22319;DHT22;11327;52.334;9.506;2023-07-28T18:03:15;24.10;99.90
22319;DHT22;11327;52.334;9.506;2023-07-28T18:06:36;24.10;99.90
22319;DHT22;11327;52.334;9.506;2023-07-28T18:09:56;24.00;99.90
22319;DHT22;11327;52.334;9.506;2023-07-28T18:13:17;24.00;99.90
22319;DHT22;11327;52.334;9.506;2023-07-28T18:16:38;23.80;99.90
22319;DHT22;11327;52.334;9.506;2023-07-28T18:19:59;23.80;99.90
22319;DHT22;11327;52.334;9.506;2023-07-28T18:23:20;23.60;99.90
22319;DHT22;11327;52.334;9.506;2023-07-28T18:26:42;23.70;99.90
22319;DHT22;11327;52.334;9.506;2023-07-28T18:30:03;23.60;99.90
22319;DHT22;11327;52.334;9.506;2023-07-28T18:33:24;23.50;99.90
22319;DHT22;11327;52.334;9.506;2023-07-28T18:36:45;23.40;99.90
22319;DHT22;11327;52.334;9.506;2023-07-28T18:40:06;23.40;99.90
22319;DHT22;11327;52.334;9.506;2023-07-28T18:43:27;23.30;99.90
22319;DHT22;11327;52.334;9.506;2023-07-28T18:46:48;23.20;99.90
22319;DHT22;11327;52.334;9.506;2023-07-28T18:50:09;23.10;99.90
22319;DHT22;11327;52.334;9.506;2023-07-28T18:53:30;23.00;99.90
22319;DHT22;11327;52.334;9.506;2023-07-28T18:56:51;22.90;99.90
22319;DHT22;11327;52.334;9.506;2023-07-28T19:00:13;22.90;99.90
22319;DHT22;11327;52.334;9.506;2023-07-28T19:03:33;22.80;99.90
22319;DHT22;11327;52.334;9.506;2023-07-28T19:06:54;22.70;99.90
22319;DHT22;11327;52.334;9.506;2023-07-28T19:10:15;22.60;99.90
22319;DHT22;11327;52.334;9.506;2023-07-28T19:13:36;22.40;99.90
22319;DHT22;11327;52.334;9.506;2023-07-28T19:16:56;22.50;99.90
22319;DHT22;11327;52.334;9.506;2023-07-28T19:20:17;22.40;99.90
22319;DHT22;11327;52.334;9.506;2023-07-28T19:23:41;22.30;99.90
22319;DHT22;11327;52.334;9.506;2023-07-28T19:27:02;22.20;99.90
22319;DHT22;11327;52.334;9.506;2023-07-28T19:30:24;22.10;99.90
22319;DHT22;11327;52.334;9.506;2023-07-28T19:33:44;22.10;99.90
22319;DHT22;11327;52.334;9.506;2023-07-28T19:37:05;22.00;99.90
22319;DHT22;11327;52.334;9.506;2023-07-28T19:40:27;21.90;99.90
22319;DHT22;11327;52.334;9.506;2023-07-28T19:43:48;21.90;99.90
22319;DHT22;11327;52.334;9.506;2023-07-28T19:47:09;21.70;99.90
22319;DHT22;11327;52.334;9.506;2023-07-28T19:50:30;21.70;99.90
22319;DHT22;11327;52.334;9.506;2023-07-28T19:53:50;21.60;99.90
22319;DHT22;11327;52.334;9.506;2023-07-28T19:57:13;21.60;99.90
22319;DHT22;11327;52.334;9.506;2023-07-28T20:00:34;21.40;99.90
22319;DHT22;11327;52.334;9.506;2023-07-28T20:03:54;21.30;99.90
22319;DHT22;11327;52.334;9.506;2023-07-28T20:07:15;21.20;99.90
22319;DHT22;11327;52.334;9.506;2023-07-28T20:10:36;21.10;99.90
22319;DHT22;11327;52.334;9.506;2023-07-28T20:13:56;21.10;99.90
22319;DHT22;11327;52.334;9.506;2023-07-28T20:17:17;21.00;99.90
22319;DHT22;11327;52.334;9.506;2023-07-28T20:20:38;21.00;99.90
22319;DHT22;11327;52.334;9.506;2023-07-28T20:23:58;21.00;99.90
22319;DHT22;11327;52.334;9.506;2023-07-28T20:27:19;20.90;99.90
22319;DHT22;11327;52.334;9.506;2023-07-28T20:30:40;20.80;99.90
22319;DHT22;11327;52.334;9.506;2023-07-28T20:34:01;20.80;99.90
22319;DHT22;11327;52.334;9.506;2023-07-28T20:37:22;20.80;99.90
22319;DHT22;11327;52.334;9.506;2023-07-28T20:40:42;20.80;99.90
22319;DHT22;11327;52.334;9.506;2023-07-28T20:44:03;20.70;99.90
22319;DHT22;11327;52.334;9.506;2023-07-28T20:47:25;20.60;99.90
22319;DHT22;11327;52.334;9.506;2023-07-28T20:50:45;20.50;99.90
22319;DHT22;11327;52.334;9.506;2023-07-28T20:54:06;20.50;99.90
22319;DHT22;11327;52.334;9.506;2023-07-28T20:57:27;20.40;99.90
22319;DHT22;11327;52.334;9.506;2023-07-28T21:00:47;20.40;99.90
22319;DHT22;11327;52.334;9.506;2023-07-28T21:04:08;20.30;99.90
22319;DHT22;11327;52.334;9.506;2023-07-28T21:07:29;20.30;99.90
22319;DHT22;11327;52.334;9.506;2023-07-28T21:10:50;20.30;99.90
22319;DHT22;11327;52.334;9.506;2023-07-28T21:14:10;20.30;99.90
22319;DHT22;11327;52.334;9.506;2023-07-28T21:17:31;20.20;99.90